sensor_id;sensor_type;location;lat;lon;timestamp;temperature;humidity
36416;DHT22;22447;44.530;18.620;2023-09-19T00:01:44;21.00;99.90
36416;DHT22;22447;44.530;18.620;2023-09-19T00:04:12;21.00;99.90
36416;DHT22;22447;44.530;18.620;2023-09-19T00:06:38;20.90;99.90
36416;DHT22;22447;44.530;18.620;2023-09-19T00:09:05;20.90;99.90
36416;DHT22;22447;44.530;18.620;2023-09-19T00:11:36;20.90;99.90
36416;DHT22;22447;44.530;18.620;2023-09-19T00:14:03;20.90;99.90
36416;DHT22;22447;44.530;18.620;2023-09-19T00:16:30;20.80;99.90
36416;DHT22;22447;44.530;18.620;2023-09-19T00:18:58;20.80;99.90
36416;DHT22;22447;44.530;18.620;2023-09-19T00:21:25;20.80;99.90
36416;DHT22;22447;44.530;18.620;2023-09-19T00:23:50;20.70;99.90
36416;DHT22;22447;44.530;18.620;2023-09-19T00:26:17;20.70;99.90
36416;DHT22;22447;44.530;18.620;2023-09-19T00:28:47;20.70;99.90
36416;DHT22;22447;44.530;18.620;2023-09-19T00:31:13;20.70;99.90
36416;DHT22;22447;44.530;18.620;2023-09-19T00:33:39;20.80;99.90
36416;DHT22;22447;44.530;18.620;2023-09-19T00:36:05;20.80;99.90
36416;DHT22;22447;44.530;18.620;2023-09-19T00:38:31;20.80;99.90
36416;DHT22;22447;44.530;18.620;2023-09-19T00:40:57;20.80;99.90
36416;DHT22;22447;44.530;18.620;2023-09-19T00:43:25;20.80;99.90
36416;DHT22;22447;44.530;18.620;2023-09-19T00:45:54;20.80;99.90
36416;DHT22;22447;44.530;18.620;2023-09-19T00:48:21;20.60;99.90
36416;DHT22;22447;44.530;18.620;2023-09-19T00:50:48;20.70;99.90
36416;DHT22;22447;44.530;18.620;2023-09-19T00:53:21;20.70;99.90
36416;DHT22;22447;44.530;18.620;2023-09-19T00:55:49;20.70;99.90
36416;DHT22;22447;44.530;18.620;2023-09-19T00:58:17;20.70;99.90
36416;DHT22;22447;44.530;18.620;2023-09-19T01:00:45;20.70;99.90
36416;DHT22;22447;44.530;18.620;2023-09-19T01:03:12;20.70;99.90
36416;DHT22;22447;44.530;18.620;2023-09-19T01:05:40;20.70;99.90
36416;DHT22;22447;44.530;18.620;2023-09-19T01:08:06;20.80;99.90
36416;DHT22;22447;44.530;18.620;2023-09-19T01:10:33;20.70;99.90
36416;DHT22;22447;44.530;18.620;2023-09-19T01:22:16;20.60;99.90
36416;DHT22;22447;44.530;18.620;2023-09-19T01:30:26;20.50;99.90
36416;DHT22;22447;44.530;18.620;2023-09-19T01:32:55;20.50;99.90
36416;DHT22;22447;44.530;18.620;2023-09-19T01:35:22;20.60;99.90
36416;DHT22;22447;44.530;18.620;2023-09-19T01:37:47;20.50;99.90
36416;DHT22;22447;44.530;18.620;2023-09-19T01:40:20;20.50;99.90
36416;DHT22;22447;44.530;18.620;2023-09-19T01:43:01;20.40;99.90
36416;DHT22;22447;44.530;18.620;2023-09-19T01:45:37;20.50;99.90
36416;DHT22;22447;44.530;18.620;2023-09-19T01:48:35;20.50;99.90
36416;DHT22;22447;44.530;18.620;2023-09-19T01:51:07;20.50;99.90
36416;DHT22;22447;44.530;18.620;2023-09-19T01:56:08;20.40;99.90
36416;DHT22;22447;44.530;18.620;2023-09-19T01:58:53;20.40;99.90
36416;DHT22;22447;44.530;18.620;2023-09-19T02:01:22;20.40;99.90
36416;DHT22;22447;44.530;18.620;2023-09-19T02:03:50;20.50;99.90
36416;DHT22;22447;44.530;18.620;2023-09-19T02:06:17;20.50;99.90
36416;DHT22;22447;44.530;18.620;2023-09-19T02:08:47;20.60;99.90
36416;DHT22;22447;44.530;18.620;2023-09-19T02:11:13;20.50;99.90
36416;DHT22;22447;44.530;18.620;2023-09-19T02:13:40;20.50;99.90
36416;DHT22;22447;44.530;18.620;2023-09-19T02:16:06;20.40;99.90
36416;DHT22;22447;44.530;18.620;2023-09-19T02:18:33;20.50;99.90
36416;DHT22;22447;44.530;18.620;2023-09-19T02:21:02;20.50;99.90
36416;DHT22;22447;44.530;18.620;2023-09-19T02:23:30;20.40;99.90
36416;DHT22;22447;44.530;18.620;2023-09-19T02:25:59;20.40;99.90
36416;DHT22;22447;44.530;18.620;2023-09-19T02:28:29;20.40;99.90
36416;DHT22;22447;44.530;18.620;2023-09-19T02:30:58;20.40;99.90
36416;DHT22;22447;44.530;18.620;2023-09-19T02:33:24;20.40;99.90
36416;DHT22;22447;44.530;18.620;2023-09-19T02:35:56;20.30;99.90
36416;DHT22;22447;44.530;18.620;2023-09-19T02:38:25;20.30;99.90
36416;DHT22;22447;44.530;18.620;2023-09-19T02:40:52;20.20;99.90
36416;DHT22;22447;44.530;18.620;2023-09-19T02:43:18;20.20;99.90
36416;DHT22;22447;44.530;18.620;2023-09-19T02:45:48;20.10;99.90
36416;DHT22;22447;44.530;18.620;2023-09-19T02:48:19;20.00;99.90
36416;DHT22;22447;44.530;18.620;2023-09-19T02:50:49;19.90;99.90
36416;DHT22;22447;44.530;18.620;2023-09-19T02:53:15;19.90;99.90
36416;DHT22;22447;44.530;18.620;2023-09-19T02:55:41;19.90;99.90
36416;DHT22;22447;44.530;18.620;2023-09-19T02:58:08;19.80;99.90
36416;DHT22;22447;44.530;18.620;2023-09-19T03:00:36;19.80;99.90
36416;DHT22;22447;44.530;18.620;2023-09-19T03:03:03;19.70;99.90
36416;DHT22;22447;44.530;18.620;2023-09-19T03:05:30;19.70;99.90
36416;DHT22;22447;44.530;18.620;2023-09-19T03:07:57;19.60;99.90
36416;DHT22;22447;44.530;18.620;2023-09-19T03:10:26;19.60;99.90
36416;DHT22;22447;44.530;18.620;2023-09-19T03:12:54;19.50;99.90
36416;DHT22;22447;44.530;18.620;2023-09-19T03:15:20;19.50;99.90
36416;DHT22;22447;44.530;18.620;2023-09-19T03:17:49;19.50;99.90
36416;DHT22;22447;44.530;18.620;2023-09-19T03:20:19;19.40;99.90
36416;DHT22;22447;44.530;18.620;2023-09-19T03:22:48;19.40;99.90
36416;DHT22;22447;44.530;18.620;2023-09-19T03:25:15;19.40;99.90
36416;DHT22;22447;44.530;18.620;2023-09-19T03:27:45;19.40;99.90
36416;DHT22;22447;44.530;18.620;2023-09-19T03:30:12;19.40;99.90
36416;DHT22;22447;44.530;18.620;2023-09-19T03:32:46;19.40;99.90
36416;DHT22;22447;44.530;18.620;2023-09-19T03:35:13;19.30;99.90
36416;DHT22;22447;44.530;18.620;2023-09-19T03:37:41;19.30;99.90
36416;DHT22;22447;44.530;18.620;2023-09-19T03:40:08;19.20;99.90
36416;DHT22;22447;44.530;18.620;2023-09-19T03:42:39;19.20;99.90
36416;DHT22;22447;44.530;18.620;2023-09-19T03:45:10;19.20;99.90
36416;DHT22;22447;44.530;18.620;2023-09-19T03:47:46;19.00;99.90
36416;DHT22;22447;44.530;18.620;2023-09-19T03:50:17;19.00;99.90
36416;DHT22;22447;44.530;18.620;2023-09-19T03:52:44;18.90;99.90
36416;DHT22;22447;44.530;18.620;2023-09-19T03:55:10;18.80;99.90
36416;DHT22;22447;44.530;18.620;2023-09-19T03:57:38;18.80;99.90
36416;DHT22;22447;44.530;18.620;2023-09-19T04:00:05;18.80;99.90
36416;DHT22;22447;44.530;18.620;2023-09-19T04:02:39;18.80;99.90
36416;DHT22;22447;44.530;18.620;2023-09-19T04:05:06;18.80;99.90
36416;DHT22;22447;44.530;18.620;2023-09-19T04:07:32;18.80;99.90
36416;DHT22;22447;44.530;18.620;2023-09-19T04:09:57;18.70;99.90
36416;DHT22;22447;44.530;18.620;2023-09-19T04:12:23;18.70;99.90
36416;DHT22;22447;44.530;18.620;2023-09-19T04:14:49;18.60;99.90
36416;DHT22;22447;44.530;18.620;2023-09-19T04:17:16;18.60;99.90
36416;DHT22;22447;44.530;18.620;2023-09-19T04:19:42;18.50;99.90
36416;DHT22;22447;44.530;18.620;2023-09-19T04:22:08;18.50;99.90
36416;DHT22;22447;44.530;18.620;2023-09-19T04:24:35;18.50;99.90
36416;DHT22;22447;44.530;18.620;2023-09-19T04:27:01;18.50;99.90
36416;DHT22;22447;44.530;18.620;2023-09-19T04:29:27;18.50;99.90
36416;DHT22;22447;44.530;18.620;2023-09-19T04:31:55;18.50;99.90
36416;DHT22;22447;44.530;18.620;2023-09-19T04:34:22;18.50;99.90
36416;DHT22;22447;44.530;18.620;2023-09-19T04:36:49;18.50;99.90
36416;DHT22;22447;44.530;18.620;2023-09-19T04:39:15;18.60;99.90
36416;DHT22;22447;44.530;18.620;2023-09-19T04:41:42;18.50;99.90
36416;DHT22;22447;44.530;18.620;2023-09-19T04:44:08;18.50;99.90
36416;DHT22;22447;44.530;18.620;2023-09-19T04:46:34;18.50;99.90
36416;DHT22;22447;44.530;18.620;2023-09-19T04:49:00;18.60;99.90
36416;DHT22;22447;44.530;18.620;2023-09-19T04:51:27;18.60;99.90
36416;DHT22;22447;44.530;18.620;2023-09-19T04:53:56;18.60;99.90
36416;DHT22;22447;44.530;18.620;2023-09-19T04:56:22;18.80;99.90
36416;DHT22;22447;44.530;18.620;2023-09-19T04:58:48;18.80;99.90
36416;DHT22;22447;44.530;18.620;2023-09-19T05:01:14;18.80;99.90
36416;DHT22;22447;44.530;18.620;2023-09-19T05:03:41;18.80;99.90
36416;DHT22;22447;44.530;18.620;2023-09-19T05:06:07;18.90;99.90
36416;DHT22;22447;44.530;18.620;2023-09-19T05:08:33;19.00;99.90
36416;DHT22;22447;44.530;18.620;2023-09-19T05:11:02;19.00;99.90
36416;DHT22;22447;44.530;18.620;2023-09-19T05:13:28;19.10;99.90
36416;DHT22;22447;44.530;18.620;2023-09-19T05:15:54;19.20;99.90
36416;DHT22;22447;44.530;18.620;2023-09-19T05:18:19;19.30;99.90
36416;DHT22;22447;44.530;18.620;2023-09-19T05:20:47;19.30;99.90
36416;DHT22;22447;44.530;18.620;2023-09-19T05:23:14;19.40;99.90
36416;DHT22;22447;44.530;18.620;2023-09-19T05:25:40;19.50;99.90
36416;DHT22;22447;44.530;18.620;2023-09-19T05:28:07;19.40;99.90
36416;DHT22;22447;44.530;18.620;2023-09-19T05:30:34;19.40;99.90
36416;DHT22;22447;44.530;18.620;2023-09-19T05:33:02;19.50;99.90
36416;DHT22;22447;44.530;18.620;2023-09-19T05:35:30;19.60;99.90
36416;DHT22;22447;44.530;18.620;2023-09-19T05:37:57;19.70;99.90
36416;DHT22;22447;44.530;18.620;2023-09-19T05:40:24;19.80;99.90
36416;DHT22;22447;44.530;18.620;2023-09-19T05:42:50;20.00;99.90
36416;DHT22;22447;44.530;18.620;2023-09-19T05:45:17;20.10;99.90
36416;DHT22;22447;44.530;18.620;2023-09-19T05:47:52;20.30;99.90
36416;DHT22;22447;44.530;18.620;2023-09-19T05:50:26;20.50;99.90
36416;DHT22;22447;44.530;18.620;2023-09-19T05:52:55;20.70;99.90
36416;DHT22;22447;44.530;18.620;2023-09-19T05:55:33;20.90;99.90
36416;DHT22;22447;44.530;18.620;2023-09-19T05:58:02;21.00;99.90
36416;DHT22;22447;44.530;18.620;2023-09-19T06:00:31;21.30;99.90
36416;DHT22;22447;44.530;18.620;2023-09-19T06:02:59;21.50;99.90
36416;DHT22;22447;44.530;18.620;2023-09-19T06:05:26;21.70;99.90
36416;DHT22;22447;44.530;18.620;2023-09-19T06:07:55;22.00;99.90
36416;DHT22;22447;44.530;18.620;2023-09-19T06:10:22;22.10;99.90
36416;DHT22;22447;44.530;18.620;2023-09-19T06:12:49;22.30;99.90
36416;DHT22;22447;44.530;18.620;2023-09-19T06:15:16;22.40;99.90
36416;DHT22;22447;44.530;18.620;2023-09-19T06:17:49;22.70;99.90
36416;DHT22;22447;44.530;18.620;2023-09-19T06:20:16;23.00;99.90
36416;DHT22;22447;44.530;18.620;2023-09-19T06:22:45;23.20;99.90
36416;DHT22;22447;44.530;18.620;2023-09-19T06:25:12;23.60;99.90
36416;DHT22;22447;44.530;18.620;2023-09-19T06:27:45;24.10;99.90
36416;DHT22;22447;44.530;18.620;2023-09-19T06:30:11;24.50;99.90
36416;DHT22;22447;44.530;18.620;2023-09-19T06:32:38;24.70;98.70
36416;DHT22;22447;44.530;18.620;2023-09-19T06:35:05;24.80;98.40
36416;DHT22;22447;44.530;18.620;2023-09-19T06:37:35;25.10;97.40
36416;DHT22;22447;44.530;18.620;2023-09-19T06:40:14;25.40;97.00
36416;DHT22;22447;44.530;18.620;2023-09-19T06:42:43;26.00;96.10
36416;DHT22;22447;44.530;18.620;2023-09-19T06:45:15;26.10;93.80
36416;DHT22;22447;44.530;18.620;2023-09-19T06:47:45;26.40;93.60
36416;DHT22;22447;44.530;18.620;2023-09-19T06:50:11;26.70;92.20
36416;DHT22;22447;44.530;18.620;2023-09-19T06:52:43;26.90;91.70
36416;DHT22;22447;44.530;18.620;2023-09-19T06:55:09;27.00;88.90
36416;DHT22;22447;44.530;18.620;2023-09-19T06:57:37;27.30;86.90
36416;DHT22;22447;44.530;18.620;2023-09-19T07:00:03;27.30;86.20
36416;DHT22;22447;44.530;18.620;2023-09-19T07:02:35;27.60;85.80
36416;DHT22;22447;44.530;18.620;2023-09-19T07:05:01;27.50;83.90
36416;DHT22;22447;44.530;18.620;2023-09-19T07:07:27;27.80;82.90
36416;DHT22;22447;44.530;18.620;2023-09-19T07:09:58;28.10;81.90
36416;DHT22;22447;44.530;18.620;2023-09-19T07:12:24;28.00;81.80
36416;DHT22;22447;44.530;18.620;2023-09-19T07:14:54;28.10;81.70
36416;DHT22;22447;44.530;18.620;2023-09-19T07:17:24;28.10;80.30
36416;DHT22;22447;44.530;18.620;2023-09-19T07:19:50;28.10;78.30
36416;DHT22;22447;44.530;18.620;2023-09-19T07:22:16;28.20;79.30
36416;DHT22;22447;44.530;18.620;2023-09-19T07:24:42;28.40;78.60
36416;DHT22;22447;44.530;18.620;2023-09-19T07:27:08;28.90;78.90
36416;DHT22;22447;44.530;18.620;2023-09-19T07:29:34;28.80;75.60
36416;DHT22;22447;44.530;18.620;2023-09-19T07:32:04;29.20;76.20
36416;DHT22;22447;44.530;18.620;2023-09-19T07:34:30;29.40;74.10
36416;DHT22;22447;44.530;18.620;2023-09-19T07:36:55;29.30;71.60
36416;DHT22;22447;44.530;18.620;2023-09-19T07:39:22;29.40;68.90
36416;DHT22;22447;44.530;18.620;2023-09-19T07:41:48;29.50;70.10
36416;DHT22;22447;44.530;18.620;2023-09-19T07:44:15;29.50;70.50
36416;DHT22;22447;44.530;18.620;2023-09-19T07:46:41;29.00;69.80
36416;DHT22;22447;44.530;18.620;2023-09-19T07:49:07;28.90;71.00
36416;DHT22;22447;44.530;18.620;2023-09-19T07:51:33;29.50;69.00
36416;DHT22;22447;44.530;18.620;2023-09-19T07:54:01;30.20;70.60
36416;DHT22;22447;44.530;18.620;2023-09-19T07:56:27;30.50;64.50
36416;DHT22;22447;44.530;18.620;2023-09-19T07:58:53;30.20;63.60
36416;DHT22;22447;44.530;18.620;2023-09-19T08:01:19;30.50;64.20
36416;DHT22;22447;44.530;18.620;2023-09-19T08:03:45;31.00;62.40
36416;DHT22;22447;44.530;18.620;2023-09-19T08:06:11;30.70;61.20
36416;DHT22;22447;44.530;18.620;2023-09-19T08:08:37;31.20;59.90
36416;DHT22;22447;44.530;18.620;2023-09-19T08:11:04;31.40;57.30
36416;DHT22;22447;44.530;18.620;2023-09-19T08:13:41;31.60;57.50
36416;DHT22;22447;44.530;18.620;2023-09-19T08:16:11;31.80;57.00
36416;DHT22;22447;44.530;18.620;2023-09-19T08:18:37;31.80;55.40
36416;DHT22;22447;44.530;18.620;2023-09-19T08:21:06;32.40;54.80
36416;DHT22;22447;44.530;18.620;2023-09-19T08:23:45;32.20;53.50
36416;DHT22;22447;44.530;18.620;2023-09-19T08:26:11;32.80;55.70
36416;DHT22;22447;44.530;18.620;2023-09-19T08:28:37;33.70;52.70
36416;DHT22;22447;44.530;18.620;2023-09-19T08:31:07;33.90;50.00
36416;DHT22;22447;44.530;18.620;2023-09-19T08:33:36;34.00;48.80
36416;DHT22;22447;44.530;18.620;2023-09-19T08:36:03;34.20;48.30
36416;DHT22;22447;44.530;18.620;2023-09-19T08:38:34;34.50;44.80
36416;DHT22;22447;44.530;18.620;2023-09-19T08:41:01;34.50;44.90
36416;DHT22;22447;44.530;18.620;2023-09-19T08:43:30;34.40;43.90
36416;DHT22;22447;44.530;18.620;2023-09-19T08:48:39;35.10;42.80
36416;DHT22;22447;44.530;18.620;2023-09-19T08:51:07;35.00;41.80
36416;DHT22;22447;44.530;18.620;2023-09-19T08:53:54;35.20;42.00
36416;DHT22;22447;44.530;18.620;2023-09-19T08:56:26;35.10;40.80
36416;DHT22;22447;44.530;18.620;2023-09-19T08:58:57;34.90;38.90
36416;DHT22;22447;44.530;18.620;2023-09-19T09:01:28;34.80;38.10
36416;DHT22;22447;44.530;18.620;2023-09-19T09:03:55;35.20;37.50
36416;DHT22;22447;44.530;18.620;2023-09-19T09:06:22;35.00;35.30
36416;DHT22;22447;44.530;18.620;2023-09-19T09:08:50;34.90;36.30
36416;DHT22;22447;44.530;18.620;2023-09-19T09:11:18;35.10;36.00
36416;DHT22;22447;44.530;18.620;2023-09-19T09:13:44;35.50;35.60
36416;DHT22;22447;44.530;18.620;2023-09-19T09:16:12;35.80;34.90
36416;DHT22;22447;44.530;18.620;2023-09-19T09:18:39;35.80;32.60
36416;DHT22;22447;44.530;18.620;2023-09-19T09:21:06;36.70;33.00
36416;DHT22;22447;44.530;18.620;2023-09-19T09:23:32;36.70;29.90
36416;DHT22;22447;44.530;18.620;2023-09-19T09:25:59;36.70;31.60
36416;DHT22;22447;44.530;18.620;2023-09-19T09:28:30;36.40;31.40
36416;DHT22;22447;44.530;18.620;2023-09-19T09:31:00;36.00;31.10
36416;DHT22;22447;44.530;18.620;2023-09-19T09:33:34;35.90;31.50
36416;DHT22;22447;44.530;18.620;2023-09-19T09:36:01;35.70;30.30
36416;DHT22;22447;44.530;18.620;2023-09-19T09:38:30;35.60;29.20
36416;DHT22;22447;44.530;18.620;2023-09-19T09:41:09;36.00;28.90
36416;DHT22;22447;44.530;18.620;2023-09-19T09:43:37;35.90;27.80
36416;DHT22;22447;44.530;18.620;2023-09-19T09:46:27;36.40;28.00
36416;DHT22;22447;44.530;18.620;2023-09-19T09:49:13;36.60;27.00
36416;DHT22;22447;44.530;18.620;2023-09-19T09:54:35;36.00;26.30
36416;DHT22;22447;44.530;18.620;2023-09-19T09:57:05;35.70;25.80
36416;DHT22;22447;44.530;18.620;2023-09-19T09:59:56;36.10;26.20
36416;DHT22;22447;44.530;18.620;2023-09-19T10:02:40;36.10;26.70
36416;DHT22;22447;44.530;18.620;2023-09-19T10:05:20;36.50;25.30
36416;DHT22;22447;44.530;18.620;2023-09-19T10:07:48;36.40;27.00
36416;DHT22;22447;44.530;18.620;2023-09-19T10:10:36;36.50;24.90
36416;DHT22;22447;44.530;18.620;2023-09-19T10:13:10;36.60;26.70
36416;DHT22;22447;44.530;18.620;2023-09-19T10:15:44;36.50;25.10
36416;DHT22;22447;44.530;18.620;2023-09-19T10:18:24;36.70;26.00
36416;DHT22;22447;44.530;18.620;2023-09-19T10:20:51;37.00;24.80
36416;DHT22;22447;44.530;18.620;2023-09-19T10:23:19;36.50;24.30
36416;DHT22;22447;44.530;18.620;2023-09-19T10:25:49;36.90;24.20
36416;DHT22;22447;44.530;18.620;2023-09-19T10:28:17;37.40;24.90
36416;DHT22;22447;44.530;18.620;2023-09-19T10:30:53;37.60;23.80
36416;DHT22;22447;44.530;18.620;2023-09-19T10:33:21;38.00;26.40
36416;DHT22;22447;44.530;18.620;2023-09-19T10:35:56;37.70;23.30
36416;DHT22;22447;44.530;18.620;2023-09-19T10:38:31;37.50;24.60
36416;DHT22;22447;44.530;18.620;2023-09-19T10:41:09;37.40;23.70
36416;DHT22;22447;44.530;18.620;2023-09-19T10:43:38;37.10;25.00
36416;DHT22;22447;44.530;18.620;2023-09-19T10:46:08;37.60;24.70
36416;DHT22;22447;44.530;18.620;2023-09-19T10:48:39;37.70;24.40
36416;DHT22;22447;44.530;18.620;2023-09-19T10:51:11;37.20;23.80
36416;DHT22;22447;44.530;18.620;2023-09-19T10:56:30;36.00;24.80
36416;DHT22;22447;44.530;18.620;2023-09-19T10:59:09;35.20;25.30
36416;DHT22;22447;44.530;18.620;2023-09-19T11:01:48;34.90;25.80
36416;DHT22;22447;44.530;18.620;2023-09-19T11:04:32;34.70;25.80
36416;DHT22;22447;44.530;18.620;2023-09-19T11:07:07;34.60;25.80
36416;DHT22;22447;44.530;18.620;2023-09-19T11:09:50;34.50;26.90
36416;DHT22;22447;44.530;18.620;2023-09-19T11:15:07;34.10;27.50
36416;DHT22;22447;44.530;18.620;2023-09-19T11:17:35;33.90;28.40
36416;DHT22;22447;44.530;18.620;2023-09-19T11:30:42;33.30;33.50
36416;DHT22;22447;44.530;18.620;2023-09-19T11:33:18;33.10;34.10
36416;DHT22;22447;44.530;18.620;2023-09-19T11:36:15;32.50;35.00
36416;DHT22;22447;44.530;18.620;2023-09-19T11:43:50;29.60;41.90
36416;DHT22;22447;44.530;18.620;2023-09-19T11:46:21;29.10;43.50
36416;DHT22;22447;44.530;18.620;2023-09-19T11:48:51;28.20;46.60
36416;DHT22;22447;44.530;18.620;2023-09-19T11:51:26;27.90;49.60
36416;DHT22;22447;44.530;18.620;2023-09-19T11:54:12;27.90;51.10
36416;DHT22;22447;44.530;18.620;2023-09-19T11:56:49;27.30;53.70
36416;DHT22;22447;44.530;18.620;2023-09-19T11:59:31;27.40;54.00
36416;DHT22;22447;44.530;18.620;2023-09-19T12:02:06;27.10;55.10
36416;DHT22;22447;44.530;18.620;2023-09-19T12:04:38;27.20;55.10
36416;DHT22;22447;44.530;18.620;2023-09-19T12:07:08;26.40;58.40
36416;DHT22;22447;44.530;18.620;2023-09-19T12:09:48;26.30;61.30
36416;DHT22;22447;44.530;18.620;2023-09-19T12:12:25;25.70;63.70
36416;DHT22;22447;44.530;18.620;2023-09-19T12:14:56;25.70;65.80
36416;DHT22;22447;44.530;18.620;2023-09-19T12:17:39;25.90;65.60
36416;DHT22;22447;44.530;18.620;2023-09-19T12:20:07;25.90;66.10
36416;DHT22;22447;44.530;18.620;2023-09-19T12:22:46;25.70;68.60
36416;DHT22;22447;44.530;18.620;2023-09-19T12:25:16;25.70;69.60
36416;DHT22;22447;44.530;18.620;2023-09-19T12:27:48;25.90;70.10
36416;DHT22;22447;44.530;18.620;2023-09-19T12:30:18;25.70;72.10
36416;DHT22;22447;44.530;18.620;2023-09-19T12:32:46;25.60;73.40
36416;DHT22;22447;44.530;18.620;2023-09-19T12:35:28;25.60;74.90
36416;DHT22;22447;44.530;18.620;2023-09-19T12:37:56;25.40;77.20
36416;DHT22;22447;44.530;18.620;2023-09-19T12:40:23;25.60;77.90
36416;DHT22;22447;44.530;18.620;2023-09-19T12:42:54;25.60;77.90
36416;DHT22;22447;44.530;18.620;2023-09-19T12:45:33;25.60;78.60
36416;DHT22;22447;44.530;18.620;2023-09-19T12:51:08;25.30;79.70
36416;DHT22;22447;44.530;18.620;2023-09-19T12:53:46;25.40;80.40
36416;DHT22;22447;44.530;18.620;2023-09-19T12:56:16;25.50;81.90
36416;DHT22;22447;44.530;18.620;2023-09-19T12:59:02;25.50;82.30
36416;DHT22;22447;44.530;18.620;2023-09-19T13:01:29;25.50;83.60
36416;DHT22;22447;44.530;18.620;2023-09-19T13:04:17;25.60;84.50
36416;DHT22;22447;44.530;18.620;2023-09-19T13:06:48;25.90;83.90
36416;DHT22;22447;44.530;18.620;2023-09-19T13:09:16;26.00;81.60
36416;DHT22;22447;44.530;18.620;2023-09-19T13:11:43;26.50;79.30
36416;DHT22;22447;44.530;18.620;2023-09-19T13:14:19;26.90;77.50
36416;DHT22;22447;44.530;18.620;2023-09-19T13:17:07;26.80;77.30
36416;DHT22;22447;44.530;18.620;2023-09-19T13:19:51;26.90;79.10
36416;DHT22;22447;44.530;18.620;2023-09-19T13:22:40;26.50;83.20
36416;DHT22;22447;44.530;18.620;2023-09-19T13:25:13;27.30;79.00
36416;DHT22;22447;44.530;18.620;2023-09-19T13:27:42;27.80;78.10
36416;DHT22;22447;44.530;18.620;2023-09-19T13:30:10;28.30;74.90
36416;DHT22;22447;44.530;18.620;2023-09-19T13:32:36;28.70;70.70
36416;DHT22;22447;44.530;18.620;2023-09-19T13:35:04;28.80;70.40
36416;DHT22;22447;44.530;18.620;2023-09-19T13:37:32;29.00;70.00
36416;DHT22;22447;44.530;18.620;2023-09-19T13:39:59;29.00;66.20
36416;DHT22;22447;44.530;18.620;2023-09-19T13:42:26;29.20;65.20
36416;DHT22;22447;44.530;18.620;2023-09-19T13:44:55;29.30;64.00
36416;DHT22;22447;44.530;18.620;2023-09-19T13:47:22;29.20;63.60
36416;DHT22;22447;44.530;18.620;2023-09-19T13:49:50;29.60;63.60
36416;DHT22;22447;44.530;18.620;2023-09-19T13:52:19;29.40;63.10
36416;DHT22;22447;44.530;18.620;2023-09-19T13:54:45;29.00;65.40
36416;DHT22;22447;44.530;18.620;2023-09-19T13:57:11;28.80;65.50
36416;DHT22;22447;44.530;18.620;2023-09-19T13:59:37;28.50;66.50
36416;DHT22;22447;44.530;18.620;2023-09-19T14:02:03;28.60;65.60
36416;DHT22;22447;44.530;18.620;2023-09-19T14:04:31;27.90;68.50
36416;DHT22;22447;44.530;18.620;2023-09-19T14:06:57;27.80;67.20
36416;DHT22;22447;44.530;18.620;2023-09-19T14:09:24;27.40;68.30
36416;DHT22;22447;44.530;18.620;2023-09-19T14:11:50;27.60;68.70
36416;DHT22;22447;44.530;18.620;2023-09-19T14:14:19;27.20;72.20
36416;DHT22;22447;44.530;18.620;2023-09-19T14:16:47;26.90;73.00
36416;DHT22;22447;44.530;18.620;2023-09-19T14:19:13;27.00;73.50
36416;DHT22;22447;44.530;18.620;2023-09-19T14:21:42;26.30;76.60
36416;DHT22;22447;44.530;18.620;2023-09-19T14:24:08;26.30;77.00
36416;DHT22;22447;44.530;18.620;2023-09-19T14:26:40;26.30;77.80
36416;DHT22;22447;44.530;18.620;2023-09-19T14:29:06;26.20;77.80
36416;DHT22;22447;44.530;18.620;2023-09-19T14:31:33;25.80;79.60
36416;DHT22;22447;44.530;18.620;2023-09-19T14:33:59;25.40;81.70
36416;DHT22;22447;44.530;18.620;2023-09-19T14:36:26;25.40;82.50
36416;DHT22;22447;44.530;18.620;2023-09-19T14:38:55;25.20;83.80
36416;DHT22;22447;44.530;18.620;2023-09-19T14:41:23;25.20;84.80
36416;DHT22;22447;44.530;18.620;2023-09-19T14:43:51;25.20;85.30
36416;DHT22;22447;44.530;18.620;2023-09-19T14:46:18;25.10;85.60
36416;DHT22;22447;44.530;18.620;2023-09-19T14:48:45;25.10;86.20
36416;DHT22;22447;44.530;18.620;2023-09-19T14:51:14;25.00;86.20
36416;DHT22;22447;44.530;18.620;2023-09-19T14:53:41;24.90;86.70
36416;DHT22;22447;44.530;18.620;2023-09-19T14:56:08;24.90;87.40
36416;DHT22;22447;44.530;18.620;2023-09-19T14:58:35;24.80;88.60
36416;DHT22;22447;44.530;18.620;2023-09-19T15:01:12;24.80;89.50
36416;DHT22;22447;44.530;18.620;2023-09-19T15:03:39;24.60;90.60
36416;DHT22;22447;44.530;18.620;2023-09-19T15:06:08;24.60;91.00
36416;DHT22;22447;44.530;18.620;2023-09-19T15:08:36;24.50;92.10
36416;DHT22;22447;44.530;18.620;2023-09-19T15:11:10;24.50;92.40
36416;DHT22;22447;44.530;18.620;2023-09-19T15:13:37;24.50;93.20
36416;DHT22;22447;44.530;18.620;2023-09-19T15:16:06;24.60;93.30
36416;DHT22;22447;44.530;18.620;2023-09-19T15:18:38;24.60;93.40
36416;DHT22;22447;44.530;18.620;2023-09-19T15:21:05;24.70;92.60
36416;DHT22;22447;44.530;18.620;2023-09-19T15:23:32;24.80;92.20
36416;DHT22;22447;44.530;18.620;2023-09-19T15:26:01;24.80;92.00
36416;DHT22;22447;44.530;18.620;2023-09-19T15:28:27;24.80;92.20
36416;DHT22;22447;44.530;18.620;2023-09-19T15:31:06;25.00;92.10
36416;DHT22;22447;44.530;18.620;2023-09-19T15:33:33;24.90;93.10
36416;DHT22;22447;44.530;18.620;2023-09-19T15:36:06;24.90;94.10
36416;DHT22;22447;44.530;18.620;2023-09-19T15:41:42;25.00;92.90
36416;DHT22;22447;44.530;18.620;2023-09-19T15:44:15;25.10;92.70
36416;DHT22;22447;44.530;18.620;2023-09-19T15:46:42;25.10;93.60
36416;DHT22;22447;44.530;18.620;2023-09-19T15:49:08;25.10;93.50
36416;DHT22;22447;44.530;18.620;2023-09-19T15:51:34;25.10;93.40
36416;DHT22;22447;44.530;18.620;2023-09-19T15:54:11;25.10;93.40
36416;DHT22;22447;44.530;18.620;2023-09-19T15:56:44;25.10;93.40
36416;DHT22;22447;44.530;18.620;2023-09-19T15:59:11;25.00;92.90
36416;DHT22;22447;44.530;18.620;2023-09-19T16:01:42;24.90;93.30
36416;DHT22;22447;44.530;18.620;2023-09-19T16:04:13;24.90;93.50
36416;DHT22;22447;44.530;18.620;2023-09-19T16:06:48;24.80;93.80
36416;DHT22;22447;44.530;18.620;2023-09-19T16:09:14;24.70;94.30
36416;DHT22;22447;44.530;18.620;2023-09-19T16:11:41;24.70;94.80
36416;DHT22;22447;44.530;18.620;2023-09-19T16:14:07;24.60;96.10
36416;DHT22;22447;44.530;18.620;2023-09-19T16:16:35;24.50;97.00
36416;DHT22;22447;44.530;18.620;2023-09-19T16:19:02;24.30;97.70
36416;DHT22;22447;44.530;18.620;2023-09-19T16:21:31;24.20;98.40